sensor_id;sensor_type;location;lat;lon;timestamp;temperature;humidity
21815;DHT22;11069;48.988;8.450;2023-04-29T00:00:41;13.80;99.90
21815;DHT22;11069;48.988;8.450;2023-04-29T00:03:07;13.80;99.90
21815;DHT22;11069;48.988;8.450;2023-04-29T00:05:32;13.80;99.90
21815;DHT22;11069;48.988;8.450;2023-04-29T00:07:58;13.80;99.90
21815;DHT22;11069;48.988;8.450;2023-04-29T00:10:23;13.80;99.90
21815;DHT22;11069;48.988;8.450;2023-04-29T00:12:49;13.80;99.90
21815;DHT22;11069;48.988;8.450;2023-04-29T00:15:16;13.80;99.90
21815;DHT22;11069;48.988;8.450;2023-04-29T00:17:42;13.70;99.90
21815;DHT22;11069;48.988;8.450;2023-04-29T00:20:08;13.80;99.90
21815;DHT22;11069;48.988;8.450;2023-04-29T00:22:33;13.80;99.90
21815;DHT22;11069;48.988;8.450;2023-04-29T00:24:59;13.80;99.90
21815;DHT22;11069;48.988;8.450;2023-04-29T00:27:25;13.70;99.90
21815;DHT22;11069;48.988;8.450;2023-04-29T00:29:50;13.60;99.90
21815;DHT22;11069;48.988;8.450;2023-04-29T00:32:16;13.60;99.90
21815;DHT22;11069;48.988;8.450;2023-04-29T00:34:42;13.60;99.90
21815;DHT22;11069;48.988;8.450;2023-04-29T00:37:07;13.50;99.90
21815;DHT22;11069;48.988;8.450;2023-04-29T00:39:33;13.50;99.90
21815;DHT22;11069;48.988;8.450;2023-04-29T00:41:58;13.50;99.90
21815;DHT22;11069;48.988;8.450;2023-04-29T00:44:24;13.50;99.90
21815;DHT22;11069;48.988;8.450;2023-04-29T00:46:50;13.60;99.90
21815;DHT22;11069;48.988;8.450;2023-04-29T00:49:18;13.60;99.90
21815;DHT22;11069;48.988;8.450;2023-04-29T00:51:44;13.50;99.90
21815;DHT22;11069;48.988;8.450;2023-04-29T00:54:13;13.50;99.90
21815;DHT22;11069;48.988;8.450;2023-04-29T00:56:39;13.50;99.90
21815;DHT22;11069;48.988;8.450;2023-04-29T00:59:08;13.50;99.90
21815;DHT22;11069;48.988;8.450;2023-04-29T01:01:35;13.60;99.90
21815;DHT22;11069;48.988;8.450;2023-04-29T01:04:01;13.50;99.90
21815;DHT22;11069;48.988;8.450;2023-04-29T01:16:03;13.50;99.90
21815;DHT22;11069;48.988;8.450;2023-04-29T01:18:21;13.40;99.90
21815;DHT22;11069;48.988;8.450;2023-04-29T01:20:50;13.40;99.90
21815;DHT22;11069;48.988;8.450;2023-04-29T01:23:16;13.30;99.90
21815;DHT22;11069;48.988;8.450;2023-04-29T01:25:42;13.30;99.90
21815;DHT22;11069;48.988;8.450;2023-04-29T01:31:35;13.30;99.90
21815;DHT22;11069;48.988;8.450;2023-04-29T01:34:29;13.30;99.90
21815;DHT22;11069;48.988;8.450;2023-04-29T01:40:16;13.20;99.90
21815;DHT22;11069;48.988;8.450;2023-04-29T01:43:04;13.10;99.90
21815;DHT22;11069;48.988;8.450;2023-04-29T01:45:31;13.10;99.90
21815;DHT22;11069;48.988;8.450;2023-04-29T01:47:58;13.10;99.90
21815;DHT22;11069;48.988;8.450;2023-04-29T01:50:25;13.10;99.90
21815;DHT22;11069;48.988;8.450;2023-04-29T01:52:50;13.10;99.90
21815;DHT22;11069;48.988;8.450;2023-04-29T01:55:16;13.10;99.90
21815;DHT22;11069;48.988;8.450;2023-04-29T01:57:42;13.10;99.90
21815;DHT22;11069;48.988;8.450;2023-04-29T02:00:09;13.10;99.90
21815;DHT22;11069;48.988;8.450;2023-04-29T02:02:34;13.10;99.90
21815;DHT22;11069;48.988;8.450;2023-04-29T02:05:02;13.10;99.90
21815;DHT22;11069;48.988;8.450;2023-04-29T02:07:28;13.10;99.90
21815;DHT22;11069;48.988;8.450;2023-04-29T02:09:53;13.20;99.90
21815;DHT22;11069;48.988;8.450;2023-04-29T02:12:19;13.10;99.90
21815;DHT22;11069;48.988;8.450;2023-04-29T02:14:45;13.20;99.90
21815;DHT22;11069;48.988;8.450;2023-04-29T02:17:12;13.20;99.90
21815;DHT22;11069;48.988;8.450;2023-04-29T02:19:38;13.10;99.90
21815;DHT22;11069;48.988;8.450;2023-04-29T02:22:03;13.10;99.90
21815;DHT22;11069;48.988;8.450;2023-04-29T02:24:29;13.10;99.90
21815;DHT22;11069;48.988;8.450;2023-04-29T02:26:54;13.10;99.90
21815;DHT22;11069;48.988;8.450;2023-04-29T02:29:20;13.10;99.90
21815;DHT22;11069;48.988;8.450;2023-04-29T02:31:46;13.10;99.90
21815;DHT22;11069;48.988;8.450;2023-04-29T02:34:11;13.00;99.90
21815;DHT22;11069;48.988;8.450;2023-04-29T02:36:37;13.00;99.90
21815;DHT22;11069;48.988;8.450;2023-04-29T02:39:02;13.00;99.90
21815;DHT22;11069;48.988;8.450;2023-04-29T02:41:28;12.90;99.90
21815;DHT22;11069;48.988;8.450;2023-04-29T02:43:54;12.90;99.90
21815;DHT22;11069;48.988;8.450;2023-04-29T02:46:19;12.80;99.90
21815;DHT22;11069;48.988;8.450;2023-04-29T02:48:45;12.80;99.90
21815;DHT22;11069;48.988;8.450;2023-04-29T02:51:13;12.80;99.90
21815;DHT22;11069;48.988;8.450;2023-04-29T02:53:39;12.70;99.90
21815;DHT22;11069;48.988;8.450;2023-04-29T02:56:05;12.70;99.90
21815;DHT22;11069;48.988;8.450;2023-04-29T02:58:31;12.70;99.90
21815;DHT22;11069;48.988;8.450;2023-04-29T03:00:56;12.60;99.90
21815;DHT22;11069;48.988;8.450;2023-04-29T03:03:22;12.40;99.90
21815;DHT22;11069;48.988;8.450;2023-04-29T03:05:47;12.50;99.90
21815;DHT22;11069;48.988;8.450;2023-04-29T03:08:13;12.50;99.90
21815;DHT22;11069;48.988;8.450;2023-04-29T03:10:38;12.40;99.90
21815;DHT22;11069;48.988;8.450;2023-04-29T03:13:04;12.40;99.90
21815;DHT22;11069;48.988;8.450;2023-04-29T03:15:30;12.40;99.90
21815;DHT22;11069;48.988;8.450;2023-04-29T03:17:55;12.40;99.90
21815;DHT22;11069;48.988;8.450;2023-04-29T03:20:21;12.40;99.90
21815;DHT22;11069;48.988;8.450;2023-04-29T03:22:46;12.40;99.90
21815;DHT22;11069;48.988;8.450;2023-04-29T03:25:12;12.40;99.90
21815;DHT22;11069;48.988;8.450;2023-04-29T03:27:38;12.30;99.90
21815;DHT22;11069;48.988;8.450;2023-04-29T03:30:05;12.30;99.90
21815;DHT22;11069;48.988;8.450;2023-04-29T03:32:31;12.40;99.90
21815;DHT22;11069;48.988;8.450;2023-04-29T03:34:56;12.40;99.90
21815;DHT22;11069;48.988;8.450;2023-04-29T03:37:22;12.40;99.90
21815;DHT22;11069;48.988;8.450;2023-04-29T03:39:48;12.40;99.90
21815;DHT22;11069;48.988;8.450;2023-04-29T03:42:13;12.40;99.90
21815;DHT22;11069;48.988;8.450;2023-04-29T03:44:39;12.50;99.90
21815;DHT22;11069;48.988;8.450;2023-04-29T03:47:04;12.50;99.90
21815;DHT22;11069;48.988;8.450;2023-04-29T03:49:31;12.50;99.90
21815;DHT22;11069;48.988;8.450;2023-04-29T03:51:56;12.50;99.90
21815;DHT22;11069;48.988;8.450;2023-04-29T03:54:22;12.60;99.90
21815;DHT22;11069;48.988;8.450;2023-04-29T03:56:48;12.50;99.90
21815;DHT22;11069;48.988;8.450;2023-04-29T03:59:13;12.60;99.90
21815;DHT22;11069;48.988;8.450;2023-04-29T04:01:39;12.60;99.90
21815;DHT22;11069;48.988;8.450;2023-04-29T04:04:04;12.60;99.90
21815;DHT22;11069;48.988;8.450;2023-04-29T04:06:30;12.60;99.90
21815;DHT22;11069;48.988;8.450;2023-04-29T04:08:56;12.60;99.90
21815;DHT22;11069;48.988;8.450;2023-04-29T04:11:21;12.60;99.90
21815;DHT22;11069;48.988;8.450;2023-04-29T04:13:47;12.60;99.90
21815;DHT22;11069;48.988;8.450;2023-04-29T04:16:14;12.50;99.90
21815;DHT22;11069;48.988;8.450;2023-04-29T04:18:39;12.50;99.90
21815;DHT22;11069;48.988;8.450;2023-04-29T04:21:07;12.40;99.90
21815;DHT22;11069;48.988;8.450;2023-04-29T04:23:32;12.40;99.90
21815;DHT22;11069;48.988;8.450;2023-04-29T04:25:58;12.30;99.90
21815;DHT22;11069;48.988;8.450;2023-04-29T04:28:23;12.20;99.90
21815;DHT22;11069;48.988;8.450;2023-04-29T04:30:49;12.10;99.90
21815;DHT22;11069;48.988;8.450;2023-04-29T04:33:15;12.10;99.90
21815;DHT22;11069;48.988;8.450;2023-04-29T04:35:41;12.00;99.90
21815;DHT22;11069;48.988;8.450;2023-04-29T04:38:07;12.00;99.90
21815;DHT22;11069;48.988;8.450;2023-04-29T04:40:33;12.00;99.90
21815;DHT22;11069;48.988;8.450;2023-04-29T04:42:59;11.90;99.90
21815;DHT22;11069;48.988;8.450;2023-04-29T04:45:27;11.90;99.90
21815;DHT22;11069;48.988;8.450;2023-04-29T04:47:53;11.80;99.90
21815;DHT22;11069;48.988;8.450;2023-04-29T04:50:19;11.80;99.90
21815;DHT22;11069;48.988;8.450;2023-04-29T04:52:45;11.70;99.90
21815;DHT22;11069;48.988;8.450;2023-04-29T04:55:10;11.70;99.90
21815;DHT22;11069;48.988;8.450;2023-04-29T04:57:36;11.70;99.90
21815;DHT22;11069;48.988;8.450;2023-04-29T05:00:02;11.60;99.90
21815;DHT22;11069;48.988;8.450;2023-04-29T05:02:28;11.70;99.90
21815;DHT22;11069;48.988;8.450;2023-04-29T05:04:54;11.70;99.90
21815;DHT22;11069;48.988;8.450;2023-04-29T05:07:19;11.60;99.90
21815;DHT22;11069;48.988;8.450;2023-04-29T05:09:45;11.70;99.90
21815;DHT22;11069;48.988;8.450;2023-04-29T05:12:10;11.60;99.90
21815;DHT22;11069;48.988;8.450;2023-04-29T05:14:36;11.60;99.90
21815;DHT22;11069;48.988;8.450;2023-04-29T05:17:02;11.60;99.90
21815;DHT22;11069;48.988;8.450;2023-04-29T05:19:27;11.70;99.90
21815;DHT22;11069;48.988;8.450;2023-04-29T05:21:53;11.70;99.90
21815;DHT22;11069;48.988;8.450;2023-04-29T05:24:19;11.80;99.90
21815;DHT22;11069;48.988;8.450;2023-04-29T05:26:45;11.90;99.90
21815;DHT22;11069;48.988;8.450;2023-04-29T05:29:10;12.10;99.90
21815;DHT22;11069;48.988;8.450;2023-04-29T05:31:36;12.20;99.90
21815;DHT22;11069;48.988;8.450;2023-04-29T05:34:03;12.40;99.90
21815;DHT22;11069;48.988;8.450;2023-04-29T05:36:29;12.50;99.90
21815;DHT22;11069;48.988;8.450;2023-04-29T05:38:55;12.70;99.90
21815;DHT22;11069;48.988;8.450;2023-04-29T05:41:21;12.70;99.90
21815;DHT22;11069;48.988;8.450;2023-04-29T05:43:48;12.80;99.90
21815;DHT22;11069;48.988;8.450;2023-04-29T05:46:14;12.80;99.90
21815;DHT22;11069;48.988;8.450;2023-04-29T05:48:41;12.80;99.90
21815;DHT22;11069;48.988;8.450;2023-04-29T05:51:06;12.90;99.90
21815;DHT22;11069;48.988;8.450;2023-04-29T05:53:32;12.90;99.90
21815;DHT22;11069;48.988;8.450;2023-04-29T05:55:57;13.00;99.90
21815;DHT22;11069;48.988;8.450;2023-04-29T05:58:23;13.00;99.90
21815;DHT22;11069;48.988;8.450;2023-04-29T06:00:50;13.00;99.90
21815;DHT22;11069;48.988;8.450;2023-04-29T06:03:16;13.10;99.90
21815;DHT22;11069;48.988;8.450;2023-04-29T06:05:42;13.10;99.90
21815;DHT22;11069;48.988;8.450;2023-04-29T06:08:08;13.20;99.90
21815;DHT22;11069;48.988;8.450;2023-04-29T06:10:35;13.30;99.90
21815;DHT22;11069;48.988;8.450;2023-04-29T06:13:01;13.50;99.90
21815;DHT22;11069;48.988;8.450;2023-04-29T06:15:27;13.60;99.90
21815;DHT22;11069;48.988;8.450;2023-04-29T06:17:52;13.80;99.90
21815;DHT22;11069;48.988;8.450;2023-04-29T06:20:18;14.10;99.90
21815;DHT22;11069;48.988;8.450;2023-04-29T06:22:44;14.30;99.90
21815;DHT22;11069;48.988;8.450;2023-04-29T06:25:09;14.30;99.90
21815;DHT22;11069;48.988;8.450;2023-04-29T06:27:35;14.30;99.90
21815;DHT22;11069;48.988;8.450;2023-04-29T06:30:01;14.30;99.90
21815;DHT22;11069;48.988;8.450;2023-04-29T06:32:26;14.30;99.90
21815;DHT22;11069;48.988;8.450;2023-04-29T06:34:52;14.20;99.90
21815;DHT22;11069;48.988;8.450;2023-04-29T06:37:17;14.30;99.90
21815;DHT22;11069;48.988;8.450;2023-04-29T06:39:43;14.10;99.90
21815;DHT22;11069;48.988;8.450;2023-04-29T06:42:08;14.10;99.90
21815;DHT22;11069;48.988;8.450;2023-04-29T06:44:35;14.00;99.90
21815;DHT22;11069;48.988;8.450;2023-04-29T06:47:00;13.80;99.90
21815;DHT22;11069;48.988;8.450;2023-04-29T06:49:26;13.80;99.90
21815;DHT22;11069;48.988;8.450;2023-04-29T06:51:52;13.80;99.90
21815;DHT22;11069;48.988;8.450;2023-04-29T06:54:18;13.90;99.90
21815;DHT22;11069;48.988;8.450;2023-04-29T06:56:43;13.90;99.90
21815;DHT22;11069;48.988;8.450;2023-04-29T06:59:09;14.10;99.90
21815;DHT22;11069;48.988;8.450;2023-04-29T07:01:37;14.10;99.90
21815;DHT22;11069;48.988;8.450;2023-04-29T07:04:03;14.50;99.90
21815;DHT22;11069;48.988;8.450;2023-04-29T07:06:29;14.60;99.90
21815;DHT22;11069;48.988;8.450;2023-04-29T07:08:55;14.80;99.90
21815;DHT22;11069;48.988;8.450;2023-04-29T07:11:20;14.70;99.90
21815;DHT22;11069;48.988;8.450;2023-04-29T07:13:49;14.70;99.90
21815;DHT22;11069;48.988;8.450;2023-04-29T07:16:16;14.80;99.90
21815;DHT22;11069;48.988;8.450;2023-04-29T07:18:49;15.00;99.90
21815;DHT22;11069;48.988;8.450;2023-04-29T07:21:15;15.00;99.90
21815;DHT22;11069;48.988;8.450;2023-04-29T07:23:40;14.90;99.90
21815;DHT22;11069;48.988;8.450;2023-04-29T07:26:14;15.00;99.90
21815;DHT22;11069;48.988;8.450;2023-04-29T07:28:41;14.80;99.90
21815;DHT22;11069;48.988;8.450;2023-04-29T07:31:07;14.60;99.90
21815;DHT22;11069;48.988;8.450;2023-04-29T07:33:33;14.70;99.90
21815;DHT22;11069;48.988;8.450;2023-04-29T07:35:59;14.90;99.90
21815;DHT22;11069;48.988;8.450;2023-04-29T07:38:24;15.10;99.90
21815;DHT22;11069;48.988;8.450;2023-04-29T07:40:50;15.40;99.90
21815;DHT22;11069;48.988;8.450;2023-04-29T07:43:16;15.90;99.90
21815;DHT22;11069;48.988;8.450;2023-04-29T07:45:42;17.00;99.90
21815;DHT22;11069;48.988;8.450;2023-04-29T07:48:08;19.40;99.90
21815;DHT22;11069;48.988;8.450;2023-04-29T07:50:34;19.20;99.90
21815;DHT22;11069;48.988;8.450;2023-04-29T07:53:01;18.20;99.90
21815;DHT22;11069;48.988;8.450;2023-04-29T07:55:27;17.20;99.90
21815;DHT22;11069;48.988;8.450;2023-04-29T07:57:54;16.80;99.90
21815;DHT22;11069;48.988;8.450;2023-04-29T08:00:21;16.60;99.90
21815;DHT22;11069;48.988;8.450;2023-04-29T08:02:54;16.30;99.90
21815;DHT22;11069;48.988;8.450;2023-04-29T08:05:20;15.90;99.90
21815;DHT22;11069;48.988;8.450;2023-04-29T08:07:47;15.60;99.90
21815;DHT22;11069;48.988;8.450;2023-04-29T08:10:13;15.50;99.90
21815;DHT22;11069;48.988;8.450;2023-04-29T08:12:39;15.60;99.90
21815;DHT22;11069;48.988;8.450;2023-04-29T08:15:05;15.70;99.90
21815;DHT22;11069;48.988;8.450;2023-04-29T08:17:30;15.90;99.90
21815;DHT22;11069;48.988;8.450;2023-04-29T08:19:56;16.40;99.90
21815;DHT22;11069;48.988;8.450;2023-04-29T08:22:21;16.80;99.90
21815;DHT22;11069;48.988;8.450;2023-04-29T08:24:47;17.00;99.90
21815;DHT22;11069;48.988;8.450;2023-04-29T08:27:13;16.90;99.90
21815;DHT22;11069;48.988;8.450;2023-04-29T08:29:40;17.10;99.90
21815;DHT22;11069;48.988;8.450;2023-04-29T08:32:06;17.10;99.90
21815;DHT22;11069;48.988;8.450;2023-04-29T08:34:31;17.50;99.90
21815;DHT22;11069;48.988;8.450;2023-04-29T08:36:58;17.40;99.90
21815;DHT22;11069;48.988;8.450;2023-04-29T08:39:23;16.90;99.90
21815;DHT22;11069;48.988;8.450;2023-04-29T08:41:50;16.80;99.90
21815;DHT22;11069;48.988;8.450;2023-04-29T08:44:19;16.70;99.90
21815;DHT22;11069;48.988;8.450;2023-04-29T08:46:46;16.70;99.90
21815;DHT22;11069;48.988;8.450;2023-04-29T08:49:12;16.80;99.90
21815;DHT22;11069;48.988;8.450;2023-04-29T08:51:38;17.40;99.90
21815;DHT22;11069;48.988;8.450;2023-04-29T08:54:04;18.40;99.90
21815;DHT22;11069;48.988;8.450;2023-04-29T08:56:31;18.80;99.90
21815;DHT22;11069;48.988;8.450;2023-04-29T08:58:58;18.10;99.90
21815;DHT22;11069;48.988;8.450;2023-04-29T09:01:29;17.80;99.90
21815;DHT22;11069;48.988;8.450;2023-04-29T09:06:32;17.80;99.90
21815;DHT22;11069;48.988;8.450;2023-04-29T09:08:59;17.40;99.90
21815;DHT22;11069;48.988;8.450;2023-04-29T09:11:26;16.90;99.90
21815;DHT22;11069;48.988;8.450;2023-04-29T09:13:58;16.70;99.90
21815;DHT22;11069;48.988;8.450;2023-04-29T09:16:25;16.60;99.90
21815;DHT22;11069;48.988;8.450;2023-04-29T09:18:51;16.40;99.90
21815;DHT22;11069;48.988;8.450;2023-04-29T09:21:22;16.10;99.90
21815;DHT22;11069;48.988;8.450;2023-04-29T09:23:50;15.80;99.90
21815;DHT22;11069;48.988;8.450;2023-04-29T09:26:16;15.60;99.90
21815;DHT22;11069;48.988;8.450;2023-04-29T09:28:42;15.40;99.90
21815;DHT22;11069;48.988;8.450;2023-04-29T09:31:12;15.20;99.90
21815;DHT22;11069;48.988;8.450;2023-04-29T09:33:53;15.10;99.90
21815;DHT22;11069;48.988;8.450;2023-04-29T09:36:48;15.00;99.90
21815;DHT22;11069;48.988;8.450;2023-04-29T09:39:18;15.20;99.90
21815;DHT22;11069;48.988;8.450;2023-04-29T09:44:19;15.30;99.90
21815;DHT22;11069;48.988;8.450;2023-04-29T09:47:06;15.40;99.90
21815;DHT22;11069;48.988;8.450;2023-04-29T09:49:33;15.50;99.90
21815;DHT22;11069;48.988;8.450;2023-04-29T09:52:13;15.60;99.90
21815;DHT22;11069;48.988;8.450;2023-04-29T09:54:41;15.70;99.90
21815;DHT22;11069;48.988;8.450;2023-04-29T09:57:09;15.90;99.90
21815;DHT22;11069;48.988;8.450;2023-04-29T09:59:36;16.00;99.90
21815;DHT22;11069;48.988;8.450;2023-04-29T10:02:16;16.10;99.90
21815;DHT22;11069;48.988;8.450;2023-04-29T10:04:54;16.20;99.90
21815;DHT22;11069;48.988;8.450;2023-04-29T10:07:24;16.40;99.90
21815;DHT22;11069;48.988;8.450;2023-04-29T10:09:52;16.50;99.90
21815;DHT22;11069;48.988;8.450;2023-04-29T10:12:19;16.70;99.90
21815;DHT22;11069;48.988;8.450;2023-04-29T10:15:02;16.80;99.90
21815;DHT22;11069;48.988;8.450;2023-04-29T10:17:35;17.00;99.90
21815;DHT22;11069;48.988;8.450;2023-04-29T10:20:06;17.30;99.90
21815;DHT22;11069;48.988;8.450;2023-04-29T10:22:45;17.40;99.90
21815;DHT22;11069;48.988;8.450;2023-04-29T10:25:11;17.90;99.90
21815;DHT22;11069;48.988;8.450;2023-04-29T10:27:41;18.00;99.90
21815;DHT22;11069;48.988;8.450;2023-04-29T10:30:14;18.30;99.90
21815;DHT22;11069;48.988;8.450;2023-04-29T10:32:41;18.00;99.90
21815;DHT22;11069;48.988;8.450;2023-04-29T10:35:09;17.20;99.90
21815;DHT22;11069;48.988;8.450;2023-04-29T10:37:42;16.30;99.90
21815;DHT22;11069;48.988;8.450;2023-04-29T10:40:21;15.40;99.90
21815;DHT22;11069;48.988;8.450;2023-04-29T10:42:50;15.20;99.90
21815;DHT22;11069;48.988;8.450;2023-04-29T10:48:08;14.70;99.90
21815;DHT22;11069;48.988;8.450;2023-04-29T10:53:17;14.80;99.90
21815;DHT22;11069;48.988;8.450;2023-04-29T10:55:53;15.00;99.90
21815;DHT22;11069;48.988;8.450;2023-04-29T11:01:05;15.30;99.90
21815;DHT22;11069;48.988;8.450;2023-04-29T11:03:46;15.50;99.90
21815;DHT22;11069;48.988;8.450;2023-04-29T11:06:13;16.40;99.90
21815;DHT22;11069;48.988;8.450;2023-04-29T11:08:38;17.70;99.90
21815;DHT22;11069;48.988;8.450;2023-04-29T11:11:04;18.30;99.90
21815;DHT22;11069;48.988;8.450;2023-04-29T11:13:31;18.80;99.90
21815;DHT22;11069;48.988;8.450;2023-04-29T11:16:08;19.30;99.90
21815;DHT22;11069;48.988;8.450;2023-04-29T11:18:35;18.50;99.90
21815;DHT22;11069;48.988;8.450;2023-04-29T11:23:36;17.20;99.90
21815;DHT22;11069;48.988;8.450;2023-04-29T11:26:03;17.40;99.90
21815;DHT22;11069;48.988;8.450;2023-04-29T11:28:30;16.90;99.90
21815;DHT22;11069;48.988;8.450;2023-04-29T11:30:56;16.20;99.90
21815;DHT22;11069;48.988;8.450;2023-04-29T11:33:25;15.90;99.90
21815;DHT22;11069;48.988;8.450;2023-04-29T11:35:54;15.80;99.90
21815;DHT22;11069;48.988;8.450;2023-04-29T11:38:25;15.40;99.90
21815;DHT22;11069;48.988;8.450;2023-04-29T11:40:50;15.30;99.90
21815;DHT22;11069;48.988;8.450;2023-04-29T11:43:17;15.50;99.90
21815;DHT22;11069;48.988;8.450;2023-04-29T11:45:44;15.60;99.90
21815;DHT22;11069;48.988;8.450;2023-04-29T11:48:25;15.70;99.90
21815;DHT22;11069;48.988;8.450;2023-04-29T11:50:52;15.90;99.90
21815;DHT22;11069;48.988;8.450;2023-04-29T11:53:19;16.00;99.90
21815;DHT22;11069;48.988;8.450;2023-04-29T11:55:45;15.90;99.90
21815;DHT22;11069;48.988;8.450;2023-04-29T11:58:13;15.70;99.90
21815;DHT22;11069;48.988;8.450;2023-04-29T12:00:40;15.50;99.90
21815;DHT22;11069;48.988;8.450;2023-04-29T12:03:15;15.60;99.90
21815;DHT22;11069;48.988;8.450;2023-04-29T12:05:50;15.90;99.90
21815;DHT22;11069;48.988;8.450;2023-04-29T12:08:23;15.90;99.90
21815;DHT22;11069;48.988;8.450;2023-04-29T12:10:49;16.00;99.90
21815;DHT22;11069;48.988;8.450;2023-04-29T12:13:17;16.10;99.90
21815;DHT22;11069;48.988;8.450;2023-04-29T12:15:47;15.90;99.90
21815;DHT22;11069;48.988;8.450;2023-04-29T12:18:13;15.90;99.90
21815;DHT22;11069;48.988;8.450;2023-04-29T12:20:39;16.00;99.90
21815;DHT22;11069;48.988;8.450;2023-04-29T12:23:17;16.10;99.90
21815;DHT22;11069;48.988;8.450;2023-04-29T12:25:57;16.10;99.90
21815;DHT22;11069;48.988;8.450;2023-04-29T12:28:23;16.10;99.90
21815;DHT22;11069;48.988;8.450;2023-04-29T12:30:51;15.50;99.90
21815;DHT22;11069;48.988;8.450;2023-04-29T12:33:25;15.50;99.90
21815;DHT22;11069;48.988;8.450;2023-04-29T12:35:54;15.40;99.90
21815;DHT22;11069;48.988;8.450;2023-04-29T12:38:28;15.30;99.90
21815;DHT22;11069;48.988;8.450;2023-04-29T12:40:58;15.30;99.90
21815;DHT22;11069;48.988;8.450;2023-04-29T12:43:27;15.30;99.90
21815;DHT22;11069;48.988;8.450;2023-04-29T12:46:04;15.10;99.90
21815;DHT22;11069;48.988;8.450;2023-04-29T12:48:30;15.30;99.90
21815;DHT22;11069;48.988;8.450;2023-04-29T12:50:57;15.60;99.90
21815;DHT22;11069;48.988;8.450;2023-04-29T12:53:24;15.50;99.90
21815;DHT22;11069;48.988;8.450;2023-04-29T12:55:50;15.60;99.90
21815;DHT22;11069;48.988;8.450;2023-04-29T12:58:16;15.60;99.90
21815;DHT22;11069;48.988;8.450;2023-04-29T13:00:42;15.60;99.90
21815;DHT22;11069;48.988;8.450;2023-04-29T13:03:07;15.60;99.90
21815;DHT22;11069;48.988;8.450;2023-04-29T13:05:33;15.80;99.90
21815;DHT22;11069;48.988;8.450;2023-04-29T13:07:59;15.90;99.90
21815;DHT22;11069;48.988;8.450;2023-04-29T13:10:25;15.90;99.90
21815;DHT22;11069;48.988;8.450;2023-04-29T13:12:52;16.00;99.90
21815;DHT22;11069;48.988;8.450;2023-04-29T13:15:18;16.10;99.90
21815;DHT22;11069;48.988;8.450;2023-04-29T13:17:44;15.90;99.90
21815;DHT22;11069;48.988;8.450;2023-04-29T13:20:10;15.80;99.90
21815;DHT22;11069;48.988;8.450;2023-04-29T13:22:36;16.00;99.90
21815;DHT22;11069;48.988;8.450;2023-04-29T13:25:02;15.90;99.90
21815;DHT22;11069;48.988;8.450;2023-04-29T13:27:29;15.70;99.90
21815;DHT22;11069;48.988;8.450;2023-04-29T13:29:55;15.40;99.90
21815;DHT22;11069;48.988;8.450;2023-04-29T13:32:21;15.30;99.90
21815;DHT22;11069;48.988;8.450;2023-04-29T13:34:48;15.30;99.90
21815;DHT22;11069;48.988;8.450;2023-04-29T13:37:14;15.50;99.90
21815;DHT22;11069;48.988;8.450;2023-04-29T13:39:40;15.80;99.90
21815;DHT22;11069;48.988;8.450;2023-04-29T13:42:05;15.70;99.90
21815;DHT22;11069;48.988;8.450;2023-04-29T13:44:31;15.70;99.90
21815;DHT22;11069;48.988;8.450;2023-04-29T13:46:57;15.60;99.90
21815;DHT22;11069;48.988;8.450;2023-04-29T13:49:22;15.70;99.90
21815;DHT22;11069;48.988;8.450;2023-04-29T13:51:48;16.10;99.90
21815;DHT22;11069;48.988;8.450;2023-04-29T13:54:13;16.00;99.90
21815;DHT22;11069;48.988;8.450;2023-04-29T13:56:39;15.80;99.90
21815;DHT22;11069;48.988;8.450;2023-04-29T13:59:04;15.80;99.90
21815;DHT22;11069;48.988;8.450;2023-04-29T14:01:30;15.50;99.90
21815;DHT22;11069;48.988;8.450;2023-04-29T14:03:56;15.60;99.90
21815;DHT22;11069;48.988;8.450;2023-04-29T14:06:21;15.70;99.90
21815;DHT22;11069;48.988;8.450;2023-04-29T14:08:47;15.60;99.90
21815;DHT22;11069;48.988;8.450;2023-04-29T14:11:12;15.70;99.90
21815;DHT22;11069;48.988;8.450;2023-04-29T14:13:38;15.60;99.90
21815;DHT22;11069;48.988;8.450;2023-04-29T14:16:04;15.50;99.90
21815;DHT22;11069;48.988;8.450;2023-04-29T14:18:31;15.30;99.90
21815;DHT22;11069;48.988;8.450;2023-04-29T14:20:56;15.10;99.90
21815;DHT22;11069;48.988;8.450;2023-04-29T14:23:23;15.20;99.90
21815;DHT22;11069;48.988;8.450;2023-04-29T14:25:50;15.30;99.90
21815;DHT22;11069;48.988;8.450;2023-04-29T14:28:15;15.20;99.90
21815;DHT22;11069;48.988;8.450;2023-04-29T14:30:41;15.30;99.90
21815;DHT22;11069;48.988;8.450;2023-04-29T14:33:08;15.40;99.90
21815;DHT22;11069;48.988;8.450;2023-04-29T14:35:33;15.70;99.90
21815;DHT22;11069;48.988;8.450;2023-04-29T14:37:59;15.60;99.90
21815;DHT22;11069;48.988;8.450;2023-04-29T14:40:24;15.70;99.90
21815;DHT22;11069;48.988;8.450;2023-04-29T14:42:50;15.30;99.90
21815;DHT22;11069;48.988;8.450;2023-04-29T14:45:16;15.20;99.90
21815;DHT22;11069;48.988;8.450;2023-04-29T14:47:41;15.20;99.90
21815;DHT22;11069;48.988;8.450;2023-04-29T14:50:07;15.10;99.90
21815;DHT22;11069;48.988;8.450;2023-04-29T14:52:34;15.00;99.90
21815;DHT22;11069;48.988;8.450;2023-04-29T14:54:59;15.00;99.90
21815;DHT22;11069;48.988;8.450;2023-04-29T14:57:25;14.90;99.90
21815;DHT22;11069;48.988;8.450;2023-04-29T14:59:51;14.80;99.90
21815;DHT22;11069;48.988;8.450;2023-04-29T15:02:16;14.80;99.90
21815;DHT22;11069;48.988;8.450;2023-04-29T15:04:42;14.70;99.90
21815;DHT22;11069;48.988;8.450;2023-04-29T15:07:11;14.70;99.90
21815;DHT22;11069;48.988;8.450;2023-04-29T15:09:38;14.80;99.90
21815;DHT22;11069;48.988;8.450;2023-04-29T15:12:07;14.70;99.90
21815;DHT22;11069;48.988;8.450;2023-04-29T15:14:33;14.70;99.90
21815;DHT22;11069;48.988;8.450;2023-04-29T15:16:59;14.60;99.90
21815;DHT22;11069;48.988;8.450;2023-04-29T15:19:24;14.60;99.90
21815;DHT22;11069;48.988;8.450;2023-04-29T15:21:51;14.40;99.90
21815;DHT22;11069;48.988;8.450;2023-04-29T15:24:16;14.30;99.90
21815;DHT22;11069;48.988;8.450;2023-04-29T15:26:42;14.40;99.90
21815;DHT22;11069;48.988;8.450;2023-04-29T15:29:08;14.30;99.90
21815;DHT22;11069;48.988;8.450;2023-04-29T15:31:33;14.30;99.90
21815;DHT22;11069;48.988;8.450;2023-04-29T15:33:59;14.30;99.90
21815;DHT22;11069;48.988;8.450;2023-04-29T15:36:29;14.30;99.90
21815;DHT22;11069;48.988;8.450;2023-04-29T15:38:55;14.30;99.90
21815;DHT22;11069;48.988;8.450;2023-04-29T15:41:21;14.30;99.90
21815;DHT22;11069;48.988;8.450;2023-04-29T15:43:47;14.30;99.90
21815;DHT22;11069;48.988;8.450;2023-04-29T15:46:12;14.40;99.90
21815;DHT22;11069;48.988;8.450;2023-04-29T15:48:38;14.30;99.90
21815;DHT22;11069;48.988;8.450;2023-04-29T15:51:04;14.30;99.90
21815;DHT22;11069;48.988;8.450;2023-04-29T15:53:30;14.30;99.90
21815;DHT22;11069;48.988;8.450;2023-04-29T15:55:55;14.40;99.90
21815;DHT22;11069;48.988;8.450;2023-04-29T15:58:21;14.30;99.90
